Time;durP1;ratioP1;P1;durP2;ratioP2;P2;SDS_P1;SDS_P2;PMS_P1;PMS_P2;Temp;Humidity;BMP_temperature;BMP_pressure;BME280_temperature;BME280_humidity;BME280_pressure;Samples;Min_cycle;Max_cycle;Signal;HPM_P1;HPM_P2
2021/06/15 00:01:52;;;;;;;20.65;12.32;;;;;;;18.21;77.30;99629.38;5069000;28;20447;-81
2021/06/15 00:04:18;;;;;;;20.17;13.27;;;;;;;18.10;77.53;99616.75;5052466;28;20040;-82
2021/06/15 00:06:44;;;;;;;21.90;12.00;;;;;;;18.12;77.26;99631.72;5054279;28;20051;-81
2021/06/15 00:09:09;;;;;;;19.75;12.30;;;;;;;18.05;77.50;99626.75;5053088;28;20059;-77
2021/06/15 00:11:36;;;;;;;21.52;13.20;;;;;;;18.01;77.64;99629.66;5069678;28;20472;-81
2021/06/15 00:14:02;;;;;;;21.73;12.82;;;;;;;17.98;77.85;99628.03;5054236;28;20140;-80
2021/06/15 00:16:28;;;;;;;22.70;12.70;;;;;;;17.91;77.97;99621.41;5052525;28;20128;-79
2021/06/15 00:18:54;;;;;;;18.67;13.68;;;;;;;17.95;77.93;99630.88;5053501;28;20037;-83
2021/06/15 00:21:20;;;;;;;20.20;13.20;;;;;;;17.92;77.77;99622.25;5059237;28;20048;-83
2021/06/15 00:23:46;;;;;;;20.90;11.90;;;;;;;17.87;77.68;99625.16;5053591;28;20033;-83
2021/06/15 00:26:11;;;;;;;22.75;12.13;;;;;;;17.79;78.02;99614.97;5036565;28;20494;-81
2021/06/15 00:28:37;;;;;;;19.27;11.63;;;;;;;17.81;78.03;99625.47;5068925;28;20421;-81
2021/06/15 00:31:03;;;;;;;14.20;10.95;;;;;;;17.72;78.34;99607.47;5052716;28;20045;-83
2021/06/15 00:33:29;;;;;;;15.93;11.27;;;;;;;17.79;78.81;99627.34;5034904;28;20045;-73
2021/06/15 00:35:55;;;;;;;17.17;11.68;;;;;;;17.73;78.71;99617.94;5034908;28;20048;-81
2021/06/15 00:38:21;;;;;;;14.52;11.70;;;;;;;17.76;79.08;99622.22;5037901;28;20148;-80
2021/06/15 00:40:47;;;;;;;22.02;11.63;;;;;;;17.74;79.20;99621.44;5055398;28;20043;-82
2021/06/15 00:43:13;;;;;;;13.38;11.02;;;;;;;17.77;79.50;99626.56;5051252;28;20127;-82
2021/06/15 00:45:39;;;;;;;18.17;11.35;;;;;;;17.74;79.38;99624.94;5051988;28;20076;-82
2021/06/15 00:48:08;;;;;;;18.23;11.15;;;;;;;17.74;79.20;99618.81;5051963;28;20052;-82
2021/06/15 00:50:34;;;;;;;20.60;12.00;;;;;;;17.74;79.23;99624.09;5052563;28;20083;-82
2021/06/15 00:53:01;;;;;;;16.65;11.68;;;;;;;17.77;79.43;99631.88;5052482;28;20443;-81
2021/06/15 00:55:27;;;;;;;31.38;13.23;;;;;;;17.73;79.87;99619.75;5035843;28;20075;-74
2021/06/15 00:57:53;;;;;;;20.45;13.13;;;;;;;17.75;80.01;99628.44;5052611;28;20052;-83
2021/06/15 01:00:20;;;;;;;23.15;13.82;;;;;;;17.73;79.80;99625.03;5053140;28;20055;-79
2021/06/15 01:02:46;;;;;;;20.60;12.55;;;;;;;17.76;80.04;99624.88;5053186;28;20488;-82
2021/06/15 01:05:15;;;;;;;15.27;11.88;;;;;;;17.84;79.83;99622.69;5034076;28;20049;-82
2021/06/15 01:08:09;;;;;;;27.55;12.10;;;;;;;17.83;79.35;99605.06;5020436;28;20049;-82
2021/06/15 01:10:45;;;;;;;17.42;12.30;;;;;;;17.91;78.52;99616.09;5037954;28;20045;-83
2021/06/15 01:13:26;;;;;;;23.75;13.48;;;;;;;17.87;78.19;99614.56;5069012;28;20406;-82
2021/06/15 01:16:13;;;;;;;26.67;12.45;;;;;;;17.86;77.93;99612.84;5053648;28;20517;-83
2021/06/15 01:18:45;;;;;;;18.40;12.10;;;;;;;17.85;78.42;99621.75;5051712;28;20071;-84
2021/06/15 01:21:12;;;;;;;22.30;12.13;;;;;;;17.74;78.25;99595.84;5035798;28;20080;-82
2021/06/15 01:24:09;;;;;;;28.95;12.32;;;;;;;17.85;77.90;99607.66;5051309;28;20494;-83
2021/06/15 01:27:03;;;;;;;21.35;13.27;;;;;;;17.84;78.36;99614.75;5019503;28;20045;-82
2021/06/15 01:29:35;;;;;;;23.08;14.18;;;;;;;17.75;78.49;99599.34;5034795;28;20518;-82
2021/06/15 01:32:09;;;;;;;26.80;12.65;;;;;;;17.84;78.32;99595.38;5051209;28;20049;-83
2021/06/15 01:34:38;;;;;;;22.73;12.82;;;;;;;17.97;78.16;99607.81;5051859;28;20051;-82
2021/06/15 01:37:13;;;;;;;21.60;11.95;;;;;;;18.10;78.30;99613.25;5051321;28;20449;-80
2021/06/15 01:39:48;;;;;;;22.90;12.82;;;;;;;18.23;77.45;99618.72;5050176;28;20040;-83
2021/06/15 01:42:26;;;;;;;23.15;12.48;;;;;;;18.33;77.38;99614.59;5035482;28;20087;-83
2021/06/15 01:45:01;;;;;;;25.90;12.60;;;;;;;18.40;77.09;99616.78;5067234;28;20136;-82
2021/06/15 01:47:28;;;;;;;19.50;11.88;;;;;;;18.46;76.05;99604.97;5048028;28;20380;-82
2021/06/15 01:49:58;;;;;;;20.08;12.52;;;;;;;18.55;75.63;99600.94;5033473;28;20072;-81
2021/06/15 01:52:34;;;;;;;18.25;10.52;;;;;;;18.66;75.28;99612.66;5017162;28;20090;-82
2021/06/15 01:55:06;;;;;;;20.33;11.18;;;;;;;18.75;74.89;99613.06;5051259;28;20624;-81
2021/06/15 01:57:43;;;;;;;17.65;10.60;;;;;;;18.70;74.68;99603.59;5051228;28;20072;-83
2021/06/15 02:00:12;;;;;;;17.35;11.15;;;;;;;18.85;75.24;99616.84;5034527;28;20418;-79
2021/06/15 02:02:53;;;;;;;15.25;10.40;;;;;;;18.93;74.73;99615.44;5053025;28;20041;-83
2021/06/15 02:05:32;;;;;;;17.52;11.27;;;;;;;19.03;74.46;99618.41;5035319;28;20037;-82
2021/06/15 02:08:01;;;;;;;16.17;11.10;;;;;;;19.11;74.28;99623.22;5016748;28;20045;-81
2021/06/15 02:10:30;;;;;;;15.95;11.00;;;;;;;19.19;74.30;99616.50;5034437;28;20037;-82
2021/06/15 02:13:16;;;;;;;17.20;11.55;;;;;;;19.29;73.71;99612.34;5050338;28;20425;-79
2021/06/15 02:16:01;;;;;;;15.98;11.32;;;;;;;19.42;73.16;99609.81;5050989;28;20563;-79
2021/06/15 02:18:41;;;;;;;22.88;11.75;;;;;;;19.59;72.69;99614.06;5051426;28;20440;-81
2021/06/15 02:21:20;;;;;;;17.30;12.18;;;;;;;19.72;72.43;99600.88;5067801;28;20056;-81
2021/06/15 02:23:48;;;;;;;19.88;11.20;;;;;;;19.71;72.38;99593.88;5049514;28;20053;-77
2021/06/15 02:26:16;;;;;;;17.73;11.15;;;;;;;20.68;69.24;99595.41;5033342;28;20506;-79
2021/06/15 02:28:52;;;;;;;16.10;10.73;;;;;;;21.80;65.25;99597.28;5049332;28;20051;-80
2021/06/15 02:31:28;;;;;;;18.80;10.25;;;;;;;21.88;64.78;99613.56;5032933;28;20426;-80
2021/06/15 02:34:11;;;;;;;18.98;10.52;;;;;;;21.78;65.12;99617.84;5048606;28;20045;-79
2021/06/15 02:36:44;;;;;;;15.40;10.38;;;;;;;21.68;65.94;99614.16;5031341;28;20062;-80
2021/06/15 02:39:16;;;;;;;15.23;10.52;;;;;;;21.61;66.00;99615.56;5033778;28;20114;-80
2021/06/15 02:41:43;;;;;;;15.77;10.52;;;;;;;21.62;66.32;99603.94;5065098;28;20044;-82
2021/06/15 02:44:15;;;;;;;17.77;11.00;;;;;;;21.85;65.20;99604.94;5051380;28;20498;-81
2021/06/15 02:46:43;;;;;;;23.88;16.58;;;;;;;22.52;63.34;99607.97;5017223;28;20136;-80
2021/06/15 02:49:14;;;;;;;15.77;10.55;;;;;;;22.54;63.48;99597.19;5049952;28;20080;-82
2021/06/15 02:51:46;;;;;;;26.58;17.73;;;;;;;22.39;63.85;99600.06;5067370;28;20048;-82
2021/06/15 02:54:30;;;;;;;33.08;20.08;;;;;;;22.32;63.54;99604.16;5050174;28;20494;-82
2021/06/15 02:56:57;;;;;;;27.25;17.25;;;;;;;22.43;63.32;99611.34;5032528;28;20091;-80
2021/06/15 02:59:23;;;;;;;23.60;15.00;;;;;;;22.60;62.12;99612.72;5049665;28;20041;-84
2021/06/15 03:01:53;;;;;;;16.75;13.88;;;;;;;22.72;61.02;99604.63;5066621;28;20069;-83
2021/06/15 03:04:26;;;;;;;18.40;12.80;;;;;;;22.96;59.93;99601.94;5034985;28;20045;-83
2021/06/15 03:06:52;;;;;;;15.90;12.90;;;;;;;23.26;59.07;99589.84;5066935;28;20140;-83
2021/06/15 03:09:21;;;;;;;15.48;12.00;;;;;;;23.43;58.78;99597.38;5049350;28;20139;-84
2021/06/15 03:12:06;;;;;;;19.75;11.82;;;;;;;23.87;57.43;99603.69;5050357;28;20119;-83
2021/06/15 03:14:33;;;;;;;16.70;11.18;;;;;;;25.01;54.19;99605.66;5033501;28;20048;-84
2021/06/15 03:17:06;;;;;;;20.30;11.60;;;;;;;25.84;51.72;99593.06;5017264;28;20037;-81
2021/06/15 03:19:50;;;;;;;13.75;8.82;;;;;;;25.21;52.80;99600.41;5033119;28;20048;-84
2021/06/15 03:22:22;;;;;;;14.95;9.23;;;;;;;24.79;54.14;99596.91;5034524;28;20048;-83
2021/06/15 03:24:53;;;;;;;14.50;9.80;;;;;;;24.50;55.05;99599.34;5048100;28;20045;-83
2021/06/15 03:27:37;;;;;;;15.00;11.68;;;;;;;24.70;54.45;99585.16;5048677;28;20516;-82
2021/06/15 03:30:08;;;;;;;20.85;11.63;;;;;;;24.62;55.00;99587.66;5053193;28;20072;-84
2021/06/15 03:32:41;;;;;;;17.38;12.02;;;;;;;24.80;54.46;99582.56;5067068;28;20107;-81
2021/06/15 03:35:07;;;;;;;19.33;14.68;;;;;;;25.87;52.07;99599.00;5051747;28;20493;-83
2021/06/15 03:37:34;;;;;;;20.77;12.65;;;;;;;26.05;51.55;99601.88;5034717;28;20469;-84
2021/06/15 03:40:00;;;;;;;20.42;13.77;;;;;;;25.48;53.21;99598.03;5051355;28;20048;-82
2021/06/15 03:42:30;;;;;;;19.80;14.57;;;;;;;25.05;54.15;99603.56;5033608;28;20045;-83
2021/06/15 03:45:00;;;;;;;29.55;14.88;;;;;;;24.76;55.28;99595.34;5036066;28;20432;-82
2021/06/15 03:47:28;;;;;;;23.13;14.68;;;;;;;24.55;55.57;99595.34;5053086;28;20517;-83
2021/06/15 03:49:55;;;;;;;16.35;13.15;;;;;;;24.88;54.33;99615.69;5018858;28;20052;-82
2021/06/15 03:52:27;;;;;;;22.92;13.55;;;;;;;24.74;54.44;99602.66;5052124;28;20102;-84
2021/06/15 03:54:54;;;;;;;16.58;10.60;;;;;;;24.59;54.63;99609.31;5051587;28;20112;-82
2021/06/15 03:57:22;;;;;;;24.25;12.38;;;;;;;24.87;53.84;99611.31;5059141;28;20094;-81
2021/06/15 03:59:48;;;;;;;18.35;12.18;;;;;;;25.29;52.22;99612.19;5071253;28;20088;-78
2021/06/15 04:02:14;;;;;;;16.15;12.00;;;;;;;26.60;49.30;99616.47;5052359;28;20136;-82
2021/06/15 04:04:42;;;;;;;18.73;12.57;;;;;;;26.40;50.00;99605.91;5068485;28;20129;-83
2021/06/15 04:07:14;;;;;;;25.48;12.05;;;;;;;26.14;49.92;99611.78;5051853;28;20052;-83
2021/06/15 04:09:40;;;;;;;14.80;11.05;;;;;;;25.76;51.30;99595.59;5067066;28;20057;-82
2021/06/15 04:12:09;;;;;;;16.25;11.52;;;;;;;25.50;51.88;99601.41;5051125;28;20037;-82
2021/06/15 04:14:35;;;;;;;21.20;11.48;;;;;;;25.48;51.96;99600.69;5051534;28;20045;-84
2021/06/15 04:17:01;;;;;;;14.45;11.23;;;;;;;25.54;52.01;99599.31;5052375;28;20040;-82
2021/06/15 04:19:41;;;;;;;19.70;11.35;;;;;;;25.55;52.62;99609.88;5052650;28;20040;-81
2021/06/15 04:22:11;;;;;;;19.60;10.73;;;;;;;25.39;53.10;99614.06;5051275;28;20075;-82
2021/06/15 04:24:39;;;;;;;20.85;10.60;;;;;;;25.35;52.17;99570.63;5051938;28;20045;-84
2021/06/15 04:27:06;;;;;;;26.50;10.63;;;;;;;25.44;52.26;99611.81;5034023;28;20095;-78
2021/06/15 04:29:32;;;;;;;18.98;11.43;;;;;;;25.45;52.43;99608.16;5051412;28;20548;-83
2021/06/15 04:32:05;;;;;;;25.98;11.57;;;;;;;25.45;52.38;99600.97;5048787;28;20482;-77
2021/06/15 04:34:33;;;;;;;25.33;11.68;;;;;;;25.59;52.04;99616.66;5051424;28;20064;-81
2021/06/15 04:37:02;;;;;;;25.02;11.10;;;;;;;25.80;51.93;99610.41;5052222;28;20120;-79
2021/06/15 04:39:37;;;;;;;23.77;11.82;;;;;;;26.04;51.00;99605.56;5034269;28;20045;-82
2021/06/15 04:42:32;;;;;;;21.02;12.18;;;;;;;27.23;47.66;99610.59;5049995;28;20087;-79
2021/06/15 04:44:58;;;;;;;17.85;11.90;;;;;;;28.37;44.89;99625.50;5043060;28;20033;-79
2021/06/15 04:47:34;;;;;;;22.92;12.85;;;;;;;28.14;45.45;99623.22;5048816;28;20091;-78
2021/06/15 04:50:12;;;;;;;21.77;11.35;;;;;;;27.93;46.12;99603.81;5032623;28;20037;-78
2021/06/15 04:52:39;;;;;;;24.42;12.05;;;;;;;27.61;47.59;99606.97;5049903;28;20535;-76
2021/06/15 04:55:06;;;;;;;22.35;12.07;;;;;;;27.65;47.36;99604.84;5015311;28;20037;-81
2021/06/15 04:57:43;;;;;;;29.55;12.60;;;;;;;28.20;46.21;99612.84;5049715;28;20040;-79
2021/06/15 05:00:10;;;;;;;19.88;11.65;;;;;;;28.82;43.61;99590.38;5032187;28;20087;-77
2021/06/15 05:02:38;;;;;;;19.60;12.20;;;;;;;28.91;44.35;99619.09;5049734;28;20113;-80
2021/06/15 05:05:05;;;;;;;17.20;11.93;;;;;;;29.89;42.24;99612.44;5050224;28;20084;-81
2021/06/15 05:07:31;;;;;;;17.13;10.60;;;;;;;28.96;43.81;99613.22;5033484;28;20056;-79
2021/06/15 05:09:59;;;;;;;16.75;11.50;;;;;;;29.85;41.97;99616.47;5047761;28;20494;-83
2021/06/15 05:12:25;;;;;;;26.98;11.80;;;;;;;30.78;39.25;99603.69;5049215;28;20052;-80
2021/06/15 05:14:51;;;;;;;21.17;11.25;;;;;;;31.45;38.25;99611.53;5015536;28;20140;-78
2021/06/15 05:17:21;;;;;;;19.92;11.40;;;;;;;32.17;36.86;99613.09;5050284;28;20131;-82
2021/06/15 05:19:47;;;;;;;16.20;10.05;;;;;;;32.95;35.37;99614.75;5051227;28;20041;-80
2021/06/15 05:22:27;;;;;;;17.35;10.68;;;;;;;33.22;35.04;99607.00;5019625;28;20041;-83
2021/06/15 05:24:58;;;;;;;21.00;10.82;;;;;;;32.65;36.69;99610.22;5054146;28;20131;-82
2021/06/15 05:27:29;;;;;;;21.20;11.32;;;;;;;33.16;34.54;99609.44;5054216;28;20533;-82
2021/06/15 05:29:55;;;;;;;;;;;;;;;33.28;34.38;99611.69;5052495;28;20418;-82
2021/06/15 05:32:21;;;;;;;18.15;10.10;;;;;;;34.27;33.17;99604.91;5049544;28;19920;-82
2021/06/15 05:34:47;;;;;;;17.35;10.77;;;;;;;35.02;31.28;99602.50;5047878;28;20457;-83
2021/06/15 05:37:13;;;;;;;19.67;10.20;;;;;;;35.56;30.84;99601.81;5032724;28;20051;-84
2021/06/15 05:39:40;;;;;;;17.48;11.00;;;;;;;36.24;29.79;99607.34;5050532;28;20052;-83
2021/06/15 05:42:07;;;;;;;20.52;11.55;;;;;;;36.16;30.24;99604.81;5047687;28;20212;-81
2021/06/15 05:44:33;;;;;;;29.20;10.55;;;;;;;36.89;28.86;99611.25;5049378;28;20110;-81
2021/06/15 05:46:59;;;;;;;25.70;11.32;;;;;;;37.33;28.26;99601.59;5048004;28;20095;-82
2021/06/15 05:49:25;;;;;;;30.08;12.00;;;;;;;37.05;28.06;99607.25;5046757;28;20044;-83
2021/06/15 05:51:57;;;;;;;18.63;10.32;;;;;;;37.29;26.89;99595.72;5046179;28;20075;-80
2021/06/15 05:54:23;;;;;;;26.75;11.35;;;;;;;36.79;28.39;99597.19;5050854;28;20041;-82
2021/06/15 05:56:49;;;;;;;27.10;12.15;;;;;;;35.90;29.04;99579.19;5036095;28;20051;-84
2021/06/15 05:59:15;;;;;;;25.25;10.75;;;;;;;37.04;27.93;99584.59;5048930;28;20040;-85
2021/06/15 06:01:41;;;;;;;27.42;11.88;;;;;;;37.51;26.90;99593.56;5048410;28;20040;-82
2021/06/15 06:04:10;;;;;;;22.75;10.23;;;;;;;37.69;26.77;99595.56;5054170;28;20041;-84
2021/06/15 06:09:19;;;;;;;27.33;11.02;;;;;;;36.41;28.82;99597.75;5034458;28;20049;-82
2021/06/15 06:11:45;;;;;;;23.33;10.63;;;;;;;36.53;28.84;99595.28;5052005;28;20048;-85
2021/06/15 06:14:12;;;;;;;29.33;9.77;;;;;;;37.63;27.42;99599.19;5064665;28;20078;-81
2021/06/15 06:16:42;;;;;;;23.23;8.85;;;;;;;38.48;26.46;99589.72;5048503;28;20060;-82
2021/06/15 06:19:08;;;;;;;22.48;11.10;;;;;;;38.08;26.11;99584.50;5050269;28;20525;-84
2021/06/15 06:21:34;;;;;;;22.05;10.35;;;;;;;38.05;26.41;99584.13;5047736;28;20037;-81
2021/06/15 06:24:01;;;;;;;15.80;10.00;;;;;;;38.35;26.49;99585.19;5048432;28;20049;-82
2021/06/15 06:26:28;;;;;;;21.92;10.02;;;;;;;39.24;25.08;99581.31;5047172;28;20041;-80
2021/06/15 06:28:57;;;;;;;22.05;10.32;;;;;;;39.87;24.31;99571.97;5048020;28;20167;-84
2021/06/15 06:31:22;;;;;;;25.13;10.07;;;;;;;39.30;24.46;99585.88;5047961;28;20167;-84
2021/06/15 06:33:48;;;;;;;19.33;9.02;;;;;;;38.91;25.20;99578.91;5048165;28;20506;-83
2021/06/15 06:36:15;;;;;;;19.88;9.00;;;;;;;39.62;24.26;99564.72;5047072;28;20040;-86
2021/06/15 06:38:41;;;;;;;23.27;9.20;;;;;;;40.13;23.49;99574.38;5063577;28;20525;-83
2021/06/15 06:41:07;;;;;;;15.02;8.20;;;;;;;39.92;23.58;99553.81;5053954;28;20097;-80
2021/06/15 06:43:32;;;;;;;19.15;8.07;;;;;;;39.38;24.06;99563.69;5053433;28;20169;-82
2021/06/15 06:45:58;;;;;;;16.70;7.97;;;;;;;38.41;25.85;99561.63;5048655;28;20047;-83
2021/06/15 06:48:25;;;;;;;15.15;7.53;;;;;;;39.27;24.63;99567.19;5047955;28;20564;-75
2021/06/15 06:50:51;;;;;;;16.45;8.10;;;;;;;39.68;24.57;99544.63;5046819;28;20647;-76
2021/06/15 06:53:17;;;;;;;17.50;7.20;;;;;;;40.38;23.40;99556.97;5048875;28;20041;-80
2021/06/15 06:55:43;;;;;;;15.55;8.32;;;;;;;38.80;24.44;99559.66;5029975;28;20491;-81
2021/06/15 06:58:10;;;;;;;20.83;7.93;;;;;;;38.94;24.75;99558.47;5045371;28;20498;-84
2021/06/15 07:00:36;;;;;;;17.30;8.32;;;;;;;38.74;25.13;99555.94;5061137;28;20413;-78
2021/06/15 07:03:03;;;;;;;24.60;8.48;;;;;;;37.73;25.83;99547.69;5030367;28;20040;-78
2021/06/15 07:05:29;;;;;;;16.95;7.72;;;;;;;38.49;25.26;99555.88;5067020;28;20049;-80
2021/06/15 07:07:55;;;;;;;16.83;7.50;;;;;;;39.43;24.02;99543.03;5051591;28;20087;-84
2021/06/15 07:10:21;;;;;;;16.67;7.65;;;;;;;39.81;23.19;99542.78;5050297;28;20389;-83
2021/06/15 07:12:47;;;;;;;20.88;7.90;;;;;;;40.20;24.08;99555.09;5034767;28;20110;-84
2021/06/15 07:15:13;;;;;;;18.10;7.97;;;;;;;39.74;24.05;99539.28;5052908;28;20047;-85
2021/06/15 07:17:39;;;;;;;17.88;7.65;;;;;;;37.68;26.00;99553.78;5051425;28;20059;-85
2021/06/15 07:20:06;;;;;;;12.73;7.72;;;;;;;37.76;26.24;99547.28;5051500;28;20045;-83
2021/06/15 07:22:33;;;;;;;15.68;8.15;;;;;;;36.59;27.66;99534.47;5067616;28;20067;-81
2021/06/15 07:24:58;;;;;;;17.05;8.15;;;;;;;36.92;27.18;99539.91;5053107;28;20102;-87
2021/06/15 07:27:24;;;;;;;12.02;8.20;;;;;;;37.09;26.95;99537.56;5018318;28;20041;-82
2021/06/15 07:29:50;;;;;;;12.63;8.68;;;;;;;36.72;26.96;99539.09;5053045;28;20077;-85
2021/06/15 07:32:16;;;;;;;20.35;7.78;;;;;;;37.78;26.00;99528.78;5017743;28;20521;-84
2021/06/15 07:34:41;;;;;;;12.65;6.93;;;;;;;37.26;26.20;99524.38;5051082;28;20088;-85
2021/06/15 07:37:07;;;;;;;13.85;7.45;;;;;;;36.46;26.66;99529.88;5052812;28;20076;-85
2021/06/15 07:39:33;;;;;;;15.80;7.60;;;;;;;36.92;26.18;99535.31;5052736;28;20077;-85
2021/06/15 07:41:59;;;;;;;14.73;7.32;;;;;;;36.57;26.78;99521.06;5051036;28;20135;-86
2021/06/15 07:44:25;;;;;;;13.10;7.10;;;;;;;36.76;26.46;99524.84;5050354;28;20475;-83
2021/06/15 07:46:53;;;;;;;14.63;6.95;;;;;;;37.86;25.65;99520.31;5066089;28;20118;-85
2021/06/15 07:49:19;;;;;;;12.00;6.15;;;;;;;37.41;24.84;99514.84;5050465;28;20634;-87
2021/06/15 07:51:45;;;;;;;12.05;6.05;;;;;;;38.40;24.41;99514.31;5067379;28;20040;-85
2021/06/15 07:54:10;;;;;;;14.90;5.50;;;;;;;39.30;23.04;99513.88;5066667;28;20176;-83
2021/06/15 07:56:36;;;;;;;11.05;5.05;;;;;;;39.03;23.04;99505.13;5051939;28;20048;-84
2021/06/15 07:59:02;;;;;;;10.95;5.47;;;;;;;38.99;22.87;99501.16;5052656;28;20056;-81
2021/06/15 08:01:28;;;;;;;12.85;6.10;;;;;;;39.23;22.30;99505.75;5033790;28;20060;-85
2021/06/15 08:03:53;;;;;;;12.00;5.47;;;;;;;39.84;22.48;99498.47;5052528;28;20063;-85
2021/06/15 08:06:19;;;;;;;8.68;4.85;;;;;;;38.85;21.94;99505.94;5034676;28;20033;-86
2021/06/15 08:08:45;;;;;;;7.63;4.50;;;;;;;38.23;23.75;99488.59;5034830;28;20053;-83
2021/06/15 08:11:11;;;;;;;12.27;4.88;;;;;;;38.19;23.53;99492.00;5052067;28;20114;-85
2021/06/15 08:13:37;;;;;;;9.75;5.28;;;;;;;38.48;22.84;99486.69;5051180;28;20044;-86
2021/06/15 08:16:04;;;;;;;8.80;3.50;;;;;;;38.74;21.36;99496.59;5050924;28;20526;-85
2021/06/15 08:18:29;;;;;;;6.43;3.50;;;;;;;37.03;22.99;99486.59;5066864;28;20037;-81
2021/06/15 08:20:56;;;;;;;10.68;3.65;;;;;;;34.56;26.82;99482.53;5051942;28;20464;-84
2021/06/15 08:23:23;;;;;;;8.48;3.40;;;;;;;33.12;28.50;99480.72;5052476;28;20067;-83
2021/06/15 08:25:48;;;;;;;8.65;3.55;;;;;;;31.85;30.72;99461.75;5052162;28;20044;-84
2021/06/15 08:28:14;;;;;;;7.30;2.70;;;;;;;31.10;31.41;99466.81;5051101;28;20146;-81
2021/06/15 08:30:40;;;;;;;8.10;3.30;;;;;;;31.72;30.94;99461.50;5034663;28;20037;-80
2021/06/15 08:33:06;;;;;;;5.60;3.08;;;;;;;31.77;29.92;99457.22;5070904;28;20498;-84
2021/06/15 08:35:32;;;;;;;6.90;2.72;;;;;;;31.75;30.80;99467.38;5062258;28;20036;-82
2021/06/15 08:37:58;;;;;;;6.60;3.25;;;;;;;31.44;31.46;99469.25;5040614;28;20416;-73
2021/06/15 08:40:24;;;;;;;3.55;3.30;;;;;;;32.23;29.75;99459.94;5051805;28;20048;-79
2021/06/15 08:42:50;;;;;;;3.55;3.10;;;;;;;32.09;31.11;99466.16;5050123;28;20052;-79
2021/06/15 08:45:16;;;;;;;5.25;3.25;;;;;;;31.17;31.84;99451.63;5046535;28;20072;-80
2021/06/15 08:47:45;;;;;;;4.75;3.00;;;;;;;30.52;32.86;99457.19;5032331;28;20090;-76
2021/06/15 08:50:17;;;;;;;13.05;3.00;;;;;;;30.51;33.30;99455.50;5064366;28;20514;-81
2021/06/15 08:52:44;;;;;;;3.33;2.90;;;;;;;30.11;34.33;99445.56;5049457;28;20601;-84
2021/06/15 08:55:11;;;;;;;3.22;3.00;;;;;;;29.91;34.13;99451.28;5050715;28;20403;-85
2021/06/15 08:57:37;;;;;;;4.05;3.08;;;;;;;30.04;34.32;99454.34;5047908;28;20143;-84
2021/06/15 09:00:09;;;;;;;4.22;3.83;;;;;;;31.58;32.67;99441.44;5050281;28;20126;-86
2021/06/15 09:02:42;;;;;;;;;;;;;;;32.41;30.95;99449.63;5052079;28;20052;-84
2021/06/15 09:05:09;;;;;;;5.88;3.58;;;;;;;32.61;30.49;99440.97;5033334;28;20309;-85
2021/06/15 09:07:57;;;;;;;11.13;4.40;;;;;;;32.39;31.83;99438.13;5034007;28;20053;-84
2021/06/15 09:10:27;;;;;;;9.85;3.90;;;;;;;32.79;31.48;99433.38;5049837;28;20045;-83
2021/06/15 09:12:53;;;;;;;7.88;3.97;;;;;;;31.85;32.50;99429.28;5032583;28;20518;-77
2021/06/15 09:15:21;;;;;;;9.40;4.53;;;;;;;31.99;33.11;99431.22;5050148;28;20064;-82
2021/06/15 09:17:47;;;;;;;14.85;4.57;;;;;;;32.16;33.87;99410.25;5048430;28;20134;-79
2021/06/15 09:20:24;;;;;;;10.48;4.38;;;;;;;32.11;31.52;99421.63;5051178;28;20087;-81
2021/06/15 09:23:04;;;;;;;8.32;3.80;;;;;;;30.85;33.58;99412.91;5050343;28;20056;-82
2021/06/15 09:25:31;;;;;;;8.27;4.30;;;;;;;30.00;34.96;99406.28;5033121;28;20037;-79
2021/06/15 09:27:58;;;;;;;7.43;4.53;;;;;;;29.95;35.16;99416.72;5050689;28;20036;-84
2021/06/15 09:30:26;;;;;;;9.73;3.95;;;;;;;29.74;35.97;99414.53;5052940;28;20120;-80
2021/06/15 09:32:53;;;;;;;7.10;5.20;;;;;;;29.32;37.11;99399.25;5066604;28;20041;-83
2021/06/15 09:35:21;;;;;;;6.20;5.20;;;;;;;29.02;38.21;99397.16;5034251;28;20512;-84
2021/06/15 09:37:56;;;;;;;9.20;4.40;;;;;;;29.01;37.46;99399.00;5067187;28;20454;-82
2021/06/15 09:40:27;;;;;;;10.38;4.75;;;;;;;28.93;37.72;99376.56;5066334;28;20120;-78
2021/06/15 09:43:06;;;;;;;16.67;5.22;;;;;;;29.23;37.47;99397.56;5048675;28;20053;-79
2021/06/15 09:45:36;;;;;;;10.38;4.50;;;;;;;29.12;37.54;99397.03;5036400;28;20136;-78
2021/06/15 09:48:22;;;;;;;7.43;4.43;;;;;;;29.15;37.25;99385.91;5050243;28;20072;-76
2021/06/15 09:50:49;;;;;;;9.43;4.47;;;;;;;29.10;37.25;99394.50;5049658;28;20041;-78
2021/06/15 09:53:34;;;;;;;8.10;4.50;;;;;;;28.95;38.25;99396.94;5047662;28;20162;-76
2021/06/15 09:56:10;;;;;;;7.03;4.97;;;;;;;28.61;39.34;99388.84;5048296;28;20056;-73
2021/06/15 09:58:47;;;;;;;9.18;5.40;;;;;;;28.38;39.84;99382.34;5047985;28;20052;-73
2021/06/15 10:01:39;;;;;;;8.65;5.18;;;;;;;28.33;39.88;99374.75;5047794;28;20903;-72
2021/06/15 10:04:27;;;;;;;10.70;5.20;;;;;;;28.85;38.80;99379.22;5047264;28;20037;-76
2021/06/15 10:06:54;;;;;;;5.82;5.13;;;;;;;28.80;38.07;99371.59;5048163;28;20481;-72
2021/06/15 10:09:28;;;;;;;6.85;5.18;;;;;;;29.22;37.84;99376.16;5047300;28;20087;-72
2021/06/15 10:11:56;;;;;;;8.50;5.30;;;;;;;29.48;37.38;99370.69;5064768;28;20073;-74
2021/06/15 10:14:22;;;;;;;6.20;4.78;;;;;;;29.42;36.56;99361.38;5031432;28;20060;-79
2021/06/15 10:16:49;;;;;;;8.73;4.60;;;;;;;29.53;36.46;99366.47;5051643;28;20039;-76
2021/06/15 10:19:14;;;;;;;6.88;4.97;;;;;;;29.49;37.39;99366.97;5053353;28;20095;-81
2021/06/15 10:21:40;;;;;;;5.38;4.88;;;;;;;29.73;36.72;99365.16;5050629;28;20498;-79
2021/06/15 10:24:07;;;;;;;7.68;5.03;;;;;;;29.78;36.70;99361.09;5050903;28;20043;-77
2021/06/15 10:26:33;;;;;;;10.52;5.00;;;;;;;29.83;36.72;99351.50;5047203;28;20098;-77
2021/06/15 10:29:00;;;;;;;6.38;5.10;;;;;;;29.64;36.99;99351.81;5065274;28;20466;-75
2021/06/15 10:31:28;;;;;;;14.57;4.63;;;;;;;29.77;36.38;99338.69;5047440;28;20047;-78
2021/06/15 10:33:54;;;;;;;4.95;4.35;;;;;;;29.68;35.57;99345.91;5064926;28;20118;-76
2021/06/15 10:36:36;;;;;;;6.68;4.22;;;;;;;29.21;35.45;99348.38;5065929;28;20498;-71
2021/06/15 10:39:04;;;;;;;9.05;4.72;;;;;;;28.92;35.89;99348.78;5048272;28;20041;-77
2021/06/15 10:41:30;;;;;;;4.10;3.70;;;;;;;28.84;36.30;99347.94;5049166;28;20128;-70
2021/06/15 10:43:58;;;;;;;5.20;4.03;;;;;;;28.67;36.63;99338.91;5049438;28;20131;-73
2021/06/15 10:46:30;;;;;;;6.55;4.38;;;;;;;28.61;37.22;99329.66;5047843;28;20307;-77
2021/06/15 10:49:03;;;;;;;6.38;4.43;;;;;;;28.80;37.33;99337.44;5047454;28;20047;-77
2021/06/15 10:51:37;;;;;;;6.60;4.88;;;;;;;28.81;37.46;99332.91;5047891;28;20059;-80
2021/06/15 10:54:26;;;;;;;12.38;4.60;;;;;;;28.85;37.43;99341.53;5029684;28;20055;-83
2021/06/15 10:57:15;;;;;;;10.85;4.75;;;;;;;29.01;37.17;99337.06;5030346;28;20049;-78
2021/06/15 11:00:00;;;;;;;4.80;4.28;;;;;;;29.62;36.75;99332.28;5062262;28;20138;-79
2021/06/15 11:02:31;;;;;;;7.50;4.50;;;;;;;29.93;35.95;99327.03;5049389;28;20052;-78
2021/06/15 11:04:57;;;;;;;6.55;4.45;;;;;;;30.15;35.94;99329.06;5045016;28;20131;-81
2021/06/15 11:07:26;;;;;;;7.90;4.60;;;;;;;29.96;35.58;99300.56;5047697;28;20045;-83
2021/06/15 11:09:52;;;;;;;8.68;5.68;;;;;;;29.48;37.00;99304.13;5046367;28;20144;-79
2021/06/15 11:12:20;;;;;;;5.78;5.10;;;;;;;29.23;37.61;99311.34;5030176;28;20143;-78
2021/06/15 11:15:08;;;;;;;8.18;5.05;;;;;;;29.25;37.29;99312.00;5046429;28;20080;-77
2021/06/15 11:17:49;;;;;;;7.80;4.90;;;;;;;29.27;36.77;99291.13;5047941;28;20055;-79
2021/06/15 11:20:43;;;;;;;6.45;4.00;;;;;;;29.16;36.09;99304.09;5065126;28;20498;-81
2021/06/15 11:23:14;;;;;;;6.97;4.20;;;;;;;29.32;37.11;99291.47;5063164;28;20048;-81
2021/06/15 11:25:47;;;;;;;5.80;4.38;;;;;;;29.09;36.99;99290.44;5048513;28;20041;-80
2021/06/15 11:28:36;;;;;;;8.13;4.55;;;;;;;28.84;37.05;99294.06;5046564;28;20037;-75
2021/06/15 11:31:22;;;;;;;8.90;4.57;;;;;;;28.53;37.65;99281.19;5046631;28;20136;-78
2021/06/15 11:34:01;;;;;;;7.45;4.63;;;;;;;28.41;37.91;99291.38;5046337;28;20056;-77
2021/06/15 11:36:43;;;;;;;8.15;4.45;;;;;;;28.37;37.81;99279.28;5047812;28;20043;-78
2021/06/15 11:39:30;;;;;;;8.70;4.32;;;;;;;28.95;37.69;99278.44;5046470;28;20036;-79
2021/06/15 11:42:21;;;;;;;8.90;4.68;;;;;;;29.20;37.01;99275.81;5046462;28;20084;-78